Time;durP1;ratioP1;P1;durP2;ratioP2;P2;SDS_P1;SDS_P2;PMS_P1;PMS_P2;Temp;Humidity;BMP_temperature;BMP_pressure;BME280_temperature;BME280_humidity;BME280_pressure;Samples;Min_cycle;Max_cycle;Signal;HPM_P1;HPM_P2
2024/01/10 00:02:18;;;;;;;8.82;6.55;;;;;;;-5.53;65.32;103030.31;5104524;27;20089;-84
2024/01/10 00:04:44;;;;;;;9.15;7.18;;;;;;;-5.55;65.73;103031.97;5107700;28;20066;-83
2024/01/10 00:07:09;;;;;;;7.47;3.45;;;;;;;-5.48;65.39;103028.75;5087364;28;20023;-83
2024/01/10 00:09:34;;;;;;;7.13;3.38;;;;;;;-5.51;65.37;103023.53;5114151;27;20027;-82
2024/01/10 00:12:00;;;;;;;6.40;2.70;;;;;;;-5.51;65.79;103023.53;5126777;27;20035;-84
2024/01/10 00:14:25;;;;;;;4.93;2.75;;;;;;;-5.52;65.65;103022.66;5127083;27;20039;-84
2024/01/10 00:16:50;;;;;;;9.65;6.95;;;;;;;-5.62;66.12;103015.53;5122204;27;20007;-83
2024/01/10 00:19:16;;;;;;;9.80;7.20;;;;;;;-5.65;65.91;103009.44;5113200;27;20039;-83
2024/01/10 00:21:41;;;;;;;9.68;7.25;;;;;;;-5.68;66.10;103011.09;5117240;27;20053;-83
2024/01/10 00:24:06;;;;;;;7.88;3.78;;;;;;;-5.61;65.82;103001.88;5124671;27;20042;-84
2024/01/10 00:26:32;;;;;;;10.50;8.10;;;;;;;-5.69;66.24;103005.94;5118041;27;20475;-85
2024/01/10 00:29:00;;;;;;;11.95;7.75;;;;;;;-5.73;66.49;103002.41;5123923;27;20042;-84
2024/01/10 00:31:26;;;;;;;8.70;3.83;;;;;;;-5.68;66.50;103000.84;5124960;28;20034;-85
2024/01/10 00:33:51;;;;;;;9.45;8.07;;;;;;;-5.80;66.40;103008.22;5104926;28;20161;-84
2024/01/10 00:36:16;;;;;;;8.23;3.17;;;;;;;-5.72;66.50;103004.16;5122207;27;20026;-85
2024/01/10 00:38:42;;;;;;;7.90;3.13;;;;;;;-5.73;66.55;103006.69;5113072;28;20125;-84
2024/01/10 00:41:07;;;;;;;6.55;3.22;;;;;;;-5.75;66.17;102998.94;5106066;28;20063;-84
2024/01/10 00:43:32;;;;;;;10.15;7.50;;;;;;;-5.85;66.41;102998.66;5125113;27;20030;-84
2024/01/10 00:45:58;;;;;;;9.80;3.53;;;;;;;-5.79;66.30;103004.81;5112786;28;20027;-84
2024/01/10 00:48:23;;;;;;;10.50;3.22;;;;;;;-5.79;66.71;103009.94;5087631;28;20122;-84
2024/01/10 00:50:49;;;;;;;10.35;7.72;;;;;;;-5.81;66.61;103003.03;5085845;28;20027;-83
2024/01/10 00:53:14;;;;;;;4.13;2.40;;;;;;;-5.79;66.31;102996.25;5124402;28;20019;-83
2024/01/10 00:55:40;;;;;;;4.78;2.63;;;;;;;-5.79;66.65;103006.50;5118401;28;20035;-84
2024/01/10 00:58:05;;;;;;;8.07;2.30;;;;;;;-5.81;66.28;103003.91;5104540;28;20396;-84
2024/01/10 01:00:31;;;;;;;7.80;5.82;;;;;;;-5.88;66.59;102996.00;5100708;28;20506;-83
2024/01/10 01:03:00;;;;;;;6.85;5.45;;;;;;;-5.90;66.77;103006.25;5106475;28;20027;-83
2024/01/10 01:05:25;;;;;;;8.43;3.40;;;;;;;-5.84;66.47;102998.69;5126627;28;20471;-84
2024/01/10 01:07:51;;;;;;;11.23;6.20;;;;;;;-5.89;66.84;102995.16;5127092;28;20022;-84
2024/01/10 01:10:16;;;;;;;9.10;3.20;;;;;;;-5.84;66.42;102997.84;5123983;27;20046;-83
2024/01/10 01:12:41;;;;;;;6.32;2.67;;;;;;;-5.81;66.92;102992.78;5130758;27;20054;-84
2024/01/10 01:15:07;;;;;;;8.48;6.50;;;;;;;-5.90;66.85;102990.88;5130008;27;20041;-84
2024/01/10 01:17:34;;;;;;;8.68;6.60;;;;;;;-5.89;67.53;102992.59;5129943;27;20675;-84
2024/01/10 01:19:59;;;;;;;8.30;3.17;;;;;;;-5.86;67.38;102990.09;5129717;27;20027;-84
2024/01/10 01:22:25;;;;;;;6.55;2.63;;;;;;;-5.84;67.56;102996.13;5125974;27;20019;-83
2024/01/10 01:24:50;;;;;;;5.47;2.45;;;;;;;-5.86;67.84;102987.53;5121609;27;20062;-84
2024/01/10 01:27:15;;;;;;;4.90;2.70;;;;;;;-5.88;67.03;102991.75;5123170;27;20211;-83
2024/01/10 01:29:41;;;;;;;5.20;2.83;;;;;;;-5.89;67.53;102989.19;5129618;27;20034;-83
2024/01/10 01:32:06;;;;;;;7.00;2.65;;;;;;;-5.90;67.49;102988.31;5121909;27;20026;-83
2024/01/10 01:34:31;;;;;;;7.28;2.65;;;;;;;-5.90;67.78;102987.44;5109303;27;20676;-84
2024/01/10 01:37:00;;;;;;;6.47;2.80;;;;;;;-5.92;67.64;102989.09;5112952;27;20549;-84
2024/01/10 01:39:26;;;;;;;10.43;6.80;;;;;;;-5.98;67.75;102984.69;5120967;27;20027;-84
2024/01/10 01:41:51;;;;;;;8.32;6.70;;;;;;;-6.00;68.64;102991.44;5114537;27;20050;-83
2024/01/10 01:44:16;;;;;;;7.38;3.20;;;;;;;-5.95;68.38;102978.75;5117227;27;20019;-84
2024/01/10 01:46:42;;;;;;;7.97;2.60;;;;;;;-5.96;68.21;102977.03;5098686;27;20026;-84
2024/01/10 01:49:09;;;;;;;9.15;3.72;;;;;;;-5.97;68.12;102986.41;5117144;27;20024;-84
2024/01/10 01:51:36;;;;;;;4.28;2.05;;;;;;;-5.98;68.27;102979.53;5113769;27;20505;-84
2024/01/10 01:54:06;;;;;;;6.53;2.85;;;;;;;-6.00;68.25;102978.63;5106849;28;20030;-84
2024/01/10 01:56:31;;;;;;;7.63;3.00;;;;;;;-6.01;68.81;102979.44;5108369;28;20095;-84
2024/01/10 01:58:57;;;;;;;8.75;6.90;;;;;;;-6.11;69.11;102982.56;5095852;28;20115;-84
2024/01/10 02:01:22;;;;;;;5.80;2.83;;;;;;;-6.04;69.79;102984.47;5091053;27;20046;-85
2024/01/10 02:03:48;;;;;;;5.60;2.88;;;;;;;-6.04;69.62;102974.22;5124273;27;20076;-84
2024/01/10 02:06:14;;;;;;;8.68;6.80;;;;;;;-6.12;69.97;102981.69;5106357;28;20098;-83
2024/01/10 02:08:39;;;;;;;9.02;3.28;;;;;;;-6.05;69.47;102982.72;5122671;27;20029;-83
2024/01/10 02:11:05;;;;;;;6.43;2.95;;;;;;;-6.06;69.62;102987.00;5095513;28;20093;-82
2024/01/10 02:13:34;;;;;;;5.38;2.75;;;;;;;-6.06;69.40;102971.63;5107581;28;20601;-83
2024/01/10 02:15:59;;;;;;;5.03;2.50;;;;;;;-6.07;69.85;102969.88;5100564;27;20019;-83
2024/01/10 02:18:25;;;;;;;7.65;2.65;;;;;;;-6.07;70.01;102969.00;5128672;27;20102;-84
2024/01/10 02:20:51;;;;;;;5.45;2.55;;;;;;;-6.08;70.05;102974.97;5120546;27;20110;-84
2024/01/10 02:23:17;;;;;;;4.90;2.53;;;;;;;-6.06;69.96;102970.75;5126791;27;20034;-83
2024/01/10 02:25:42;;;;;;;4.75;2.88;;;;;;;-6.05;70.20;102967.34;5124273;27;20023;-84
2024/01/10 02:28:09;;;;;;;4.05;2.05;;;;;;;-6.07;70.16;102966.44;5124299;27;20084;-84
2024/01/10 02:30:35;;;;;;;6.00;2.88;;;;;;;-6.06;69.80;102966.50;5121751;27;20102;-83
2024/01/10 02:33:00;;;;;;;9.75;6.30;;;;;;;-6.14;70.47;102967.97;5104987;27;20114;-83
2024/01/10 02:35:26;;;;;;;8.63;2.80;;;;;;;-6.09;70.69;102961.28;5124063;27;20463;-83
2024/01/10 02:37:52;;;;;;;6.60;2.78;;;;;;;-6.08;70.67;102963.03;5095768;27;20033;-84
2024/01/10 02:40:17;;;;;;;5.20;3.08;;;;;;;-6.07;70.29;102963.88;5127002;27;20130;-84
2024/01/10 02:42:43;;;;;;;8.80;6.13;;;;;;;-6.17;70.84;102969.59;5111742;27;20376;-82
2024/01/10 02:45:09;;;;;;;5.65;2.67;;;;;;;-6.11;70.63;102962.06;5116341;27;20031;-83
2024/01/10 02:47:36;;;;;;;5.40;2.55;;;;;;;-6.11;71.07;102956.94;5107688;27;20031;-83
2024/01/10 02:50:01;;;;;;;6.40;3.33;;;;;;;-6.08;70.85;102951.91;5112098;27;20387;-84
2024/01/10 02:52:29;;;;;;;9.05;2.35;;;;;;;-6.12;70.69;102950.09;5102595;27;20029;-83
2024/01/10 02:54:54;;;;;;;4.40;2.38;;;;;;;-6.12;71.30;102939.84;5101206;28;20031;-83
2024/01/10 02:57:19;;;;;;;7.53;6.13;;;;;;;-6.16;71.37;102941.44;5097519;27;20031;-83
2024/01/10 02:59:45;;;;;;;8.98;3.53;;;;;;;-6.13;71.41;102946.66;5103807;28;20078;-84
2024/01/10 03:02:10;;;;;;;7.85;2.80;;;;;;;-6.12;71.15;102950.94;5106659;27;20133;-84
2024/01/10 03:04:36;;;;;;;9.85;7.13;;;;;;;-6.16;70.97;102943.13;5116119;27;20020;-84
2024/01/10 03:07:01;;;;;;;9.00;6.75;;;;;;;-6.14;71.09;102949.19;5119447;27;20047;-83
2024/01/10 03:09:27;;;;;;;6.35;2.63;;;;;;;-6.10;71.20;102949.31;5125932;27;20023;-84
2024/01/10 03:11:52;;;;;;;5.10;2.67;;;;;;;-6.09;71.00;102942.47;5100562;27;20038;-83
2024/01/10 03:14:17;;;;;;;7.38;2.58;;;;;;;-6.09;71.04;102939.91;5123184;27;20035;-82
2024/01/10 03:16:43;;;;;;;9.43;6.38;;;;;;;-6.16;71.65;102933.75;5116030;27;20027;-83
2024/01/10 03:19:08;;;;;;;6.70;3.40;;;;;;;-6.12;71.71;102934.72;5124782;27;20042;-83
2024/01/10 03:21:34;;;;;;;10.07;6.82;;;;;;;-6.20;71.54;102923.38;5127311;27;20050;-83
2024/01/10 03:24:01;;;;;;;5.13;2.72;;;;;;;-6.11;72.01;102923.63;5117893;27;20048;-83
2024/01/10 03:26:28;;;;;;;8.80;6.55;;;;;;;-6.19;72.00;102930.25;5127632;27;20027;-83
2024/01/10 03:28:53;;;;;;;3.35;2.13;;;;;;;-6.13;72.16;102927.84;5100872;27;20020;-85
2024/01/10 03:31:19;;;;;;;11.02;6.72;;;;;;;-6.22;72.91;102922.47;5126397;27;20049;-83
2024/01/10 03:33:45;;;;;;;9.52;7.18;;;;;;;-6.23;72.46;102925.88;5109887;27;20043;-84
2024/01/10 03:36:16;;;;;;;7.47;3.33;;;;;;;-6.18;72.88;102929.44;5090787;27;20077;-83
2024/01/10 03:38:42;;;;;;;6.22;2.88;;;;;;;-6.17;72.34;102924.34;5109019;27;20459;-83
2024/01/10 03:41:07;;;;;;;6.40;3.38;;;;;;;-6.18;72.99;102919.19;5107499;27;20031;-82
2024/01/10 03:43:33;;;;;;;5.90;2.75;;;;;;;-6.19;72.33;102920.00;5097550;27;20030;-83
2024/01/10 03:45:58;;;;;;;7.05;3.30;;;;;;;-6.19;73.19;102917.44;5123180;27;20291;-83
2024/01/10 03:48:24;;;;;;;4.72;2.72;;;;;;;-6.19;72.99;102914.88;5128339;27;20034;-84
2024/01/10 03:50:50;;;;;;;6.40;3.00;;;;;;;-6.20;72.94;102914.00;5105052;28;20364;-83
2024/01/10 03:53:15;;;;;;;3.60;2.20;;;;;;;-6.17;72.32;102913.22;5118136;27;20113;-83
2024/01/10 03:55:41;;;;;;;7.10;2.90;;;;;;;-6.15;72.71;102914.13;5123588;27;20029;-83
2024/01/10 03:58:06;;;;;;;8.98;3.63;;;;;;;-6.18;73.03;102908.94;5107044;27;20036;-82
2024/01/10 04:00:32;;;;;;;11.90;7.53;;;;;;;-6.26;73.17;102907.84;5107128;27;20031;-83
2024/01/10 04:03:00;;;;;;;10.43;7.50;;;;;;;-6.30;73.75;102901.78;5105709;28;20020;-82
2024/01/10 04:05:25;;;;;;;4.60;2.70;;;;;;;-6.23;73.52;102898.56;5112910;27;20065;-83
2024/01/10 04:07:51;;;;;;;9.65;2.78;;;;;;;-6.21;73.06;102906.28;5112752;27;20458;-83
2024/01/10 04:10:17;;;;;;;7.15;2.75;;;;;;;-6.22;73.23;102907.13;5124832;27;20306;-83
2024/01/10 04:12:44;;;;;;;9.05;2.95;;;;;;;-6.23;73.26;102905.38;5123819;27;20093;-83
2024/01/10 04:15:10;;;;;;;6.07;3.30;;;;;;;-6.24;73.54;102898.53;5125350;27;20030;-83
2024/01/10 04:17:35;;;;;;;7.30;2.83;;;;;;;-6.24;73.73;102889.16;5102809;27;20034;-83
2024/01/10 04:20:02;;;;;;;9.13;3.42;;;;;;;-6.25;73.96;102891.66;5104687;27;20027;-83
2024/01/10 04:22:27;;;;;;;8.77;3.03;;;;;;;-6.28;74.22;102901.81;5108362;27;20019;-83
2024/01/10 04:24:53;;;;;;;8.00;2.83;;;;;;;-6.29;74.07;102898.41;5105101;28;20080;-83
2024/01/10 04:27:18;;;;;;;6.40;2.90;;;;;;;-6.28;73.68;102891.56;5099236;28;20027;-84
2024/01/10 04:29:44;;;;;;;7.70;3.40;;;;;;;-6.28;74.87;102896.69;5120270;27;20102;-83
2024/01/10 04:32:10;;;;;;;9.77;3.33;;;;;;;-6.27;74.54;102894.19;5124459;27;20046;-84
2024/01/10 04:34:35;;;;;;;7.15;3.22;;;;;;;-6.27;74.23;102898.44;5124219;27;20051;-84
2024/01/10 04:37:00;;;;;;;10.70;3.50;;;;;;;-6.29;74.73;102893.28;5104672;28;20108;-84
2024/01/10 04:39:26;;;;;;;6.53;2.97;;;;;;;-6.30;74.89;102883.84;5100865;28;20027;-83
2024/01/10 04:41:51;;;;;;;11.13;7.45;;;;;;;-6.42;75.58;102891.16;5093681;28;20084;-83
2024/01/10 04:44:16;;;;;;;5.30;2.83;;;;;;;-6.35;75.53;102885.41;5124829;27;20027;-84
2024/01/10 04:46:42;;;;;;;9.30;7.60;;;;;;;-6.41;75.21;102891.22;5104195;28;20425;-84
2024/01/10 04:49:07;;;;;;;9.23;7.30;;;;;;;-6.43;75.57;102880.06;5114752;27;20034;-83
2024/01/10 04:51:33;;;;;;;4.82;2.50;;;;;;;-6.35;76.00;102886.28;5129083;27;20061;-84
2024/01/10 04:53:58;;;;;;;5.38;2.97;;;;;;;-6.34;75.44;102898.28;5125354;27;20100;-84
2024/01/10 04:56:24;;;;;;;8.70;6.88;;;;;;;-6.41;76.00;102880.09;5120969;27;20028;-84
2024/01/10 04:58:49;;;;;;;8.65;3.53;;;;;;;-6.35;75.69;102878.59;5127116;27;20023;-83
2024/01/10 05:01:15;;;;;;;8.10;3.13;;;;;;;-6.36;76.07;102884.56;5122306;27;20171;-83
2024/01/10 05:03:40;;;;;;;12.25;7.57;;;;;;;-6.45;76.47;102888.53;5128985;27;20050;-83
2024/01/10 05:06:06;;;;;;;8.75;7.28;;;;;;;-6.46;76.43;102882.53;5115198;27;20034;-82
2024/01/10 05:08:31;;;;;;;6.88;3.30;;;;;;;-6.39;76.35;102879.34;5116508;27;20023;-83
2024/01/10 05:10:57;;;;;;;7.28;2.72;;;;;;;-6.38;76.76;102881.09;5107956;27;20043;-83
2024/01/10 05:13:22;;;;;;;6.30;2.67;;;;;;;-6.38;76.44;102882.78;5102571;27;20364;-83
2024/01/10 05:15:48;;;;;;;7.82;3.60;;;;;;;-6.37;76.18;102882.81;5118425;27;20031;-83
2024/01/10 05:18:14;;;;;;;6.93;3.00;;;;;;;-6.39;76.38;102884.47;5125126;27;20394;-83
2024/01/10 05:20:40;;;;;;;8.52;3.80;;;;;;;-6.38;76.38;102882.78;5106122;27;20390;-83
2024/01/10 05:23:05;;;;;;;8.85;2.88;;;;;;;-6.39;76.13;102876.78;5127832;27;20027;-82
2024/01/10 05:25:31;;;;;;;5.55;3.25;;;;;;;-6.39;75.96;102881.91;5128099;27;20073;-82
2024/01/10 05:27:56;;;;;;;5.50;2.95;;;;;;;-6.38;76.24;102882.78;5106864;27;20099;-83
2024/01/10 05:30:21;;;;;;;6.45;3.13;;;;;;;-6.41;77.03;102880.97;5122314;27;20027;-83
2024/01/10 05:32:48;;;;;;;11.15;7.32;;;;;;;-6.46;76.68;102879.97;5120215;27;20635;-83
2024/01/10 05:35:13;;;;;;;7.90;2.92;;;;;;;-6.43;76.95;102885.19;5106025;27;20019;-83
2024/01/10 05:37:38;;;;;;;6.88;2.85;;;;;;;-6.41;76.58;102880.97;5119305;27;20027;-83
2024/01/10 05:40:05;;;;;;;5.95;3.05;;;;;;;-6.41;76.89;102886.09;5114548;27;20031;-82
2024/01/10 05:42:32;;;;;;;7.95;3.00;;;;;;;-6.39;76.42;102888.72;5102535;28;20031;-83
2024/01/10 05:45:02;;;;;;;10.43;7.50;;;;;;;-6.48;76.65;102884.19;5100377;27;20045;-83
2024/01/10 05:47:29;;;;;;;6.40;3.88;;;;;;;-6.41;76.57;102883.53;5110442;27;20030;-82
2024/01/10 05:49:55;;;;;;;6.20;3.10;;;;;;;-6.41;76.72;102883.53;5121299;27;20016;-83
2024/01/10 05:52:22;;;;;;;5.35;2.95;;;;;;;-6.38;76.63;102887.91;5098270;28;20030;-82
2024/01/10 05:54:50;;;;;;;7.30;3.10;;;;;;;-6.39;76.18;102884.47;5094833;28;20152;-83
2024/01/10 05:57:16;;;;;;;8.80;3.22;;;;;;;-6.38;76.68;102885.34;5107790;28;20126;-82
2024/01/10 05:59:41;;;;;;;6.68;2.83;;;;;;;-6.39;76.17;102884.47;5108964;28;20119;-82
2024/01/10 06:02:06;;;;;;;6.55;2.88;;;;;;;-6.40;76.28;102882.75;5108938;27;20459;-83
2024/01/10 06:04:32;;;;;;;6.13;3.13;;;;;;;-6.40;76.35;102877.63;5109646;28;20034;-83
2024/01/10 06:07:00;;;;;;;10.40;7.80;;;;;;;-6.50;76.61;102877.28;5108556;27;20019;-83
2024/01/10 06:09:26;;;;;;;8.95;3.22;;;;;;;-6.46;77.25;102882.53;5111603;27;20042;-83
2024/01/10 06:11:52;;;;;;;6.32;3.00;;;;;;;-6.45;77.07;102879.16;5109755;27;20039;-83
2024/01/10 06:14:17;;;;;;;4.03;2.20;;;;;;;-6.46;76.77;102874.84;5111830;27;20313;-83
2024/01/10 06:16:44;;;;;;;5.18;3.33;;;;;;;-6.46;77.03;102879.97;5089686;28;20034;-84
2024/01/10 06:19:12;;;;;;;10.32;7.88;;;;;;;-6.54;77.38;102875.47;5110042;27;20572;-84
2024/01/10 06:21:38;;;;;;;6.35;3.03;;;;;;;-6.50;77.45;102875.59;5122209;27;20070;-83
2024/01/10 06:24:04;;;;;;;9.85;7.03;;;;;;;-6.60;77.74;102868.47;5118642;27;20431;-83
2024/01/10 06:26:29;;;;;;;5.85;2.80;;;;;;;-6.52;77.61;102864.44;5107300;27;20368;-84
2024/01/10 06:28:54;;;;;;;6.70;2.38;;;;;;;-6.53;78.01;102867.81;5123795;27;20027;-83
2024/01/10 06:31:20;;;;;;;3.80;2.38;;;;;;;-6.51;77.75;102876.41;5116493;27;20051;-82
2024/01/10 06:33:45;;;;;;;6.38;2.92;;;;;;;-6.54;78.01;102872.91;5119156;27;20110;-83
2024/01/10 06:36:11;;;;;;;5.07;2.47;;;;;;;-6.54;78.10;102878.88;5118373;27;20055;-83
2024/01/10 06:38:38;;;;;;;8.60;7.43;;;;;;;-6.64;78.05;102882.00;5118962;27;20027;-82
2024/01/10 06:41:10;;;;;;;8.77;3.70;;;;;;;-6.58;78.18;102879.63;5116329;27;20365;-83
2024/01/10 06:43:36;;;;;;;6.40;2.92;;;;;;;-6.59;78.18;102880.44;5121265;27;20106;-82
2024/01/10 06:46:03;;;;;;;15.73;7.65;;;;;;;-6.69;78.91;102883.56;5108510;27;20387;-82
2024/01/10 06:48:29;;;;;;;5.95;2.33;;;;;;;-6.63;78.48;102888.88;5110716;27;20023;-83
2024/01/10 06:50:55;;;;;;;7.78;3.63;;;;;;;-6.63;78.90;102886.31;5103629;27;20064;-83
2024/01/10 06:53:21;;;;;;;5.95;2.97;;;;;;;-6.63;78.69;102879.50;5126713;27;20407;-82
2024/01/10 06:55:46;;;;;;;4.38;2.40;;;;;;;-6.63;79.27;102873.50;5127154;27;20015;-83
2024/01/10 06:58:11;;;;;;;6.13;2.72;;;;;;;-6.64;78.83;102882.00;5116483;27;20031;-83
2024/01/10 07:00:38;;;;;;;18.65;3.67;;;;;;;-6.64;78.48;102876.91;5114501;27;20479;-83
2024/01/10 07:03:03;;;;;;;6.50;3.28;;;;;;;-6.64;79.33;102872.63;5118185;27;20028;-83
2024/01/10 07:05:31;;;;;;;7.68;3.30;;;;;;;-6.65;78.89;102882.84;5105618;27;20537;-83
2024/01/10 07:08:02;;;;;;;6.70;3.45;;;;;;;-6.66;78.87;102881.97;5123010;27;20023;-82
2024/01/10 07:10:28;;;;;;;5.60;3.17;;;;;;;-6.67;79.62;102887.03;5127550;27;20047;-83
2024/01/10 07:12:54;;;;;;;9.20;3.78;;;;;;;-6.67;79.64;102887.03;5114447;27;20081;-83
2024/01/10 07:15:20;;;;;;;9.30;3.40;;;;;;;-6.68;79.54;102886.19;5091367;27;20102;-83
2024/01/10 07:17:45;;;;;;;10.77;8.10;;;;;;;-6.78;80.73;102886.72;5106359;27;20114;-84
2024/01/10 07:20:12;;;;;;;8.38;3.00;;;;;;;-6.70;80.13;102886.97;5109035;27;20054;-81
2024/01/10 07:22:41;;;;;;;7.82;3.78;;;;;;;-6.72;79.88;102883.50;5124900;27;20055;-83
2024/01/10 07:25:07;;;;;;;4.07;2.50;;;;;;;-6.73;80.26;102879.19;5114911;27;20036;-83
2024/01/10 07:27:33;;;;;;;11.32;8.57;;;;;;;-6.85;81.08;102881.34;5126281;27;20031;-82
2024/01/10 07:29:59;;;;;;;7.85;3.38;;;;;;;-6.77;80.80;102869.69;5122538;27;20751;-83
2024/01/10 07:32:24;;;;;;;6.03;3.55;;;;;;;-6.77;80.82;102867.13;5125147;27;20498;-84
2024/01/10 07:34:49;;;;;;;10.82;3.40;;;;;;;-6.75;80.55;102875.72;5116624;27;20030;-83
2024/01/10 07:37:16;;;;;;;11.75;9.02;;;;;;;-6.84;81.28;102870.31;5116172;27;20028;-83
2024/01/10 07:39:42;;;;;;;11.18;4.00;;;;;;;-6.78;80.80;102873.06;5119508;27;20123;-82
2024/01/10 07:42:07;;;;;;;8.80;3.17;;;;;;;-6.78;80.53;102873.94;5115862;27;20110;-84
2024/01/10 07:44:33;;;;;;;10.55;3.30;;;;;;;-6.78;81.18;102868.81;5105701;27;20599;-83
2024/01/10 07:46:58;;;;;;;12.50;8.77;;;;;;;-6.85;81.13;102872.00;5126131;27;20033;-83
2024/01/10 07:49:24;;;;;;;7.22;3.33;;;;;;;-6.79;81.33;102867.09;5090115;28;20031;-84
2024/01/10 07:51:50;;;;;;;7.28;2.88;;;;;;;-6.78;81.70;102866.25;5107897;27;20064;-84
2024/01/10 07:54:15;;;;;;;6.50;3.45;;;;;;;-6.77;80.99;102864.56;5115916;27;20107;-83
2024/01/10 07:56:41;;;;;;;8.43;2.92;;;;;;;-6.77;80.90;102865.44;5119329;27;20105;-82
2024/01/10 07:59:06;;;;;;;13.55;9.70;;;;;;;-6.83;80.88;102875.47;5117065;27;20911;-83
2024/01/10 08:01:32;;;;;;;13.20;4.82;;;;;;;-6.76;81.47;102876.53;5108084;27;20050;-83
2024/01/10 08:03:58;;;;;;;6.75;3.65;;;;;;;-6.76;81.78;102879.09;5108592;27;20026;-83
2024/01/10 08:06:24;;;;;;;5.82;2.97;;;;;;;-6.75;81.45;102879.16;5117107;27;20042;-82
2024/01/10 08:08:49;;;;;;;11.43;3.67;;;;;;;-6.74;81.28;102883.44;5119381;27;20055;-83
2024/01/10 08:11:15;;;;;;;7.88;3.33;;;;;;;-6.72;81.64;102883.50;5097970;27;20039;-83
2024/01/10 08:13:40;;;;;;;6.53;3.42;;;;;;;-6.71;81.44;102874.97;5097281;27;20035;-83
2024/01/10 08:16:08;;;;;;;5.47;3.22;;;;;;;-6.69;81.42;102883.56;5108964;27;20030;-83
2024/01/10 08:18:34;;;;;;;13.45;9.55;;;;;;;-6.71;81.09;102890.34;5118784;27;20487;-83
2024/01/10 08:20:59;;;;;;;8.98;3.92;;;;;;;-6.66;80.92;102896.47;5090591;27;20027;-82
2024/01/10 08:23:25;;;;;;;10.43;3.88;;;;;;;-6.60;81.12;102896.63;5114885;27;20441;-84
2024/01/10 08:25:50;;;;;;;10.13;4.03;;;;;;;-6.56;80.71;102895.91;5113366;27;20025;-83
2024/01/10 08:28:16;;;;;;;11.73;3.85;;;;;;;-6.50;81.09;102890.09;5099918;28;20554;-83
2024/01/10 08:30:41;;;;;;;7.07;3.55;;;;;;;-6.46;80.69;102887.66;5118693;27;20468;-82
2024/01/10 08:33:07;;;;;;;8.70;3.25;;;;;;;-6.40;80.84;102898.09;5108998;27;20062;-83
2024/01/10 08:35:32;;;;;;;17.70;9.93;;;;;;;-6.38;80.42;102891.31;5115508;27;20019;-83
2024/01/10 08:37:58;;;;;;;6.70;3.67;;;;;;;-6.28;80.18;102901.81;5110243;28;20055;-81
2024/01/10 08:40:25;;;;;;;7.00;2.65;;;;;;;-6.24;80.10;102898.53;5107576;28;20024;-83
2024/01/10 08:42:53;;;;;;;11.73;3.95;;;;;;;-6.21;79.86;102885.78;5116488;27;20019;-82
2024/01/10 08:45:18;;;;;;;9.77;4.30;;;;;;;-6.18;79.02;102891.00;5114911;27;20023;-83
2024/01/10 08:47:44;;;;;;;8.60;3.95;;;;;;;-6.14;79.75;102888.56;5107546;28;20364;-82
2024/01/10 08:50:10;;;;;;;7.88;4.00;;;;;;;-6.10;79.03;102882.69;5108917;28;20041;-83
2024/01/10 08:52:38;;;;;;;8.32;3.63;;;;;;;-6.07;79.01;102887.91;5110282;28;20031;-83
2024/01/10 08:55:05;;;;;;;8.45;4.30;;;;;;;-6.01;78.80;102897.44;5094677;28;20031;-83
2024/01/10 08:57:31;;;;;;;8.93;4.10;;;;;;;-5.97;79.04;102883.03;5094982;27;20031;-83
2024/01/10 08:59:57;;;;;;;14.77;10.45;;;;;;;-5.94;78.59;102884.00;5106629;28;20038;-82
2024/01/10 09:02:23;;;;;;;7.45;3.83;;;;;;;-5.88;78.48;102891.81;5102460;28;20486;-83
2024/01/10 09:04:49;;;;;;;12.82;4.43;;;;;;;-5.83;77.91;102891.94;5115811;27;20428;-81
2024/01/10 09:07:14;;;;;;;12.57;4.28;;;;;;;-5.79;77.83;102889.47;5104296;28;20080;-83
2024/01/10 09:09:40;;;;;;;14.98;10.00;;;;;;;-5.76;77.27;102894.69;5123063;28;20034;-82
2024/01/10 09:12:05;;;;;;;6.05;2.55;;;;;;;-5.68;76.75;102892.31;5122925;28;20022;-82
2024/01/10 09:14:31;;;;;;;7.72;3.88;;;;;;;-5.63;76.40;102895.00;5125284;27;20076;-83
2024/01/10 09:16:56;;;;;;;10.27;4.25;;;;;;;-5.60;76.18;102897.63;5122551;28;20016;-83
2024/01/10 09:19:21;;;;;;;10.35;4.93;;;;;;;-5.55;76.26;102898.63;5125093;28;20027;-83
2024/01/10 09:21:48;;;;;;;14.48;10.27;;;;;;;-5.54;75.09;102896.13;5122639;28;20039;-83
2024/01/10 09:24:14;;;;;;;9.98;4.10;;;;;;;-5.46;75.21;102901.44;5125651;28;20015;-84
2024/01/10 09:26:40;;;;;;;16.77;3.83;;;;;;;-5.40;74.65;102904.13;5126411;27;20031;-83
2024/01/10 09:29:06;;;;;;;14.75;6.38;;;;;;;-5.33;74.21;102905.16;5126165;28;20027;-85
2024/01/10 09:31:31;;;;;;;8.02;4.03;;;;;;;-5.29;74.81;102910.38;5128789;27;20475;-83
2024/01/10 09:33:57;;;;;;;13.75;10.40;;;;;;;-5.22;74.05;102909.69;5132059;27;20027;-84
2024/01/10 09:36:22;;;;;;;7.47;3.70;;;;;;;-5.16;73.64;102909.00;5111833;27;20023;-84
2024/01/10 09:38:48;;;;;;;10.10;5.47;;;;;;;-5.10;73.30;102910.03;5129189;27;20083;-83
2024/01/10 09:41:15;;;;;;;10.10;4.97;;;;;;;-5.05;71.96;102913.56;5131494;27;20127;-83
2024/01/10 09:43:40;;;;;;;11.23;5.07;;;;;;;-4.99;72.44;102911.97;5113234;27;20455;-82
2024/01/10 09:46:07;;;;;;;8.07;4.10;;;;;;;-4.94;71.67;102908.66;5130991;27;20094;-83
2024/01/10 09:48:32;;;;;;;7.55;3.70;;;;;;;-4.91;71.40;102910.44;5132030;27;20148;-83
2024/01/10 09:50:58;;;;;;;9.43;4.10;;;;;;;-4.86;71.65;102916.53;5130457;27;20038;-83
2024/01/10 09:53:31;;;;;;;9.82;4.85;;;;;;;-4.83;70.94;102920.03;5130817;27;20044;-83
2024/01/10 09:55:57;;;;;;;10.18;5.22;;;;;;;-4.77;70.87;102912.50;5129404;27;20019;-82
2024/01/10 09:58:26;;;;;;;15.73;10.95;;;;;;;-4.72;70.00;102922.00;5109567;27;20037;-84
2024/01/10 10:00:52;;;;;;;12.63;5.05;;;;;;;-4.63;69.65;102919.63;5111095;27;20027;-83
2024/01/10 10:03:18;;;;;;;9.85;4.30;;;;;;;-4.58;70.57;102918.88;5130033;27;20027;-83
2024/01/10 10:05:44;;;;;;;8.68;4.57;;;;;;;-4.52;70.24;102916.44;5129037;27;20106;-83
2024/01/10 10:08:21;;;;;;;15.52;11.45;;;;;;;-4.48;69.98;102915.69;5129124;27;20110;-84
2024/01/10 10:10:50;;;;;;;10.75;5.28;;;;;;;-4.39;69.58;102911.59;5129837;27;20047;-84
2024/01/10 10:13:28;;;;;;;11.80;4.90;;;;;;;-4.36;69.30;102912.53;5127560;27;20114;-83
2024/01/10 10:16:03;;;;;;;13.88;6.57;;;;;;;-4.30;68.68;102911.78;5126897;27;20030;-84
2024/01/10 10:18:30;;;;;;;14.20;10.95;;;;;;;-4.29;68.41;102905.81;5128708;27;20031;-83
2024/01/10 10:21:09;;;;;;;13.07;5.20;;;;;;;-4.21;67.43;102902.53;5126450;27;20099;-83
2024/01/10 10:23:35;;;;;;;13.68;6.00;;;;;;;-4.16;66.96;102906.06;5110929;27;20107;-84
2024/01/10 10:26:19;;;;;;;17.27;11.50;;;;;;;-4.13;67.08;102911.25;5128134;27;20076;-84
2024/01/10 10:28:46;;;;;;;11.20;4.88;;;;;;;-4.06;67.58;102909.69;5129444;27;20413;-82
2024/01/10 10:31:11;;;;;;;17.25;12.38;;;;;;;-4.02;67.09;102898.63;5128445;27;20443;-83
2024/01/10 10:33:37;;;;;;;12.05;5.43;;;;;;;-3.95;67.13;102897.91;5128564;27;20621;-82
2024/01/10 10:36:03;;;;;;;17.52;11.73;;;;;;;-3.93;66.26;102901.38;5109659;27;20463;-83
2024/01/10 10:38:29;;;;;;;16.80;6.00;;;;;;;-3.86;66.49;102899.78;5129192;27;20055;-83
2024/01/10 10:40:55;;;;;;;14.68;5.63;;;;;;;-3.81;66.43;102888.75;5112183;27;20041;-84
2024/01/10 10:43:21;;;;;;;10.85;4.50;;;;;;;-3.76;65.27;102885.38;5112325;27;20447;-83
2024/01/10 10:45:50;;;;;;;18.05;12.10;;;;;;;-3.79;64.78;102879.34;5110067;28;20047;-83
2024/01/10 10:48:20;;;;;;;38.70;14.40;;;;;;;-3.69;64.74;102887.22;5108776;28;20113;-83
2024/01/10 10:51:07;;;;;;;69.30;47.35;;;;;;;-3.66;64.76;102882.13;5110173;28;20034;-83
2024/01/10 10:53:37;;;;;;;26.00;12.80;;;;;;;-3.60;64.61;102887.38;5109817;28;20027;-83
2024/01/10 10:56:05;;;;;;;15.77;6.55;;;;;;;-3.55;64.24;102888.34;5108841;28;20089;-82
2024/01/10 10:58:38;;;;;;;11.85;5.40;;;;;;;-3.49;63.92;102885.88;5109058;27;20110;-82
2024/01/10 11:01:08;;;;;;;12.60;5.85;;;;;;;-3.43;64.43;102879.97;5121567;27;20480;-84
2024/01/10 11:03:37;;;;;;;15.95;6.13;;;;;;;-3.37;64.14;102880.06;5108222;28;20027;-83
2024/01/10 11:06:04;;;;;;;17.70;12.85;;;;;;;-3.35;63.32;102884.38;5107219;28;20016;-83
2024/01/10 11:09:00;;;;;;;12.50;5.25;;;;;;;-3.25;63.98;102885.38;5116421;27;20027;-83
2024/01/10 11:11:56;;;;;;;15.77;11.93;;;;;;;-3.23;62.91;102881.13;5110554;27;20063;-83
2024/01/10 11:14:54;;;;;;;15.88;12.18;;;;;;;-3.16;62.46;102878.69;5128108;27;20039;-82
2024/01/10 11:17:39;;;;;;;16.73;12.93;;;;;;;-3.13;62.49;102885.59;5116422;27;20557;-82
2024/01/10 11:20:20;;;;;;;16.70;5.18;;;;;;;-3.05;63.06;102875.41;5127582;27;20034;-83